Time;durP1;ratioP1;P1;durP2;ratioP2;P2;SDS_P1;SDS_P2;PMS_P1;PMS_P2;Temp;Humidity;BMP_temperature;BMP_pressure;BME280_temperature;BME280_humidity;BME280_pressure;Samples;Min_cycle;Max_cycle;Signal;HPM_P1;HPM_P2
2021/08/23 00:02:16;;;;;;;;;5.00;5.00;;;;;24.65;45.79;101924.13;5063366;28;51305;-60
2021/08/23 00:04:41;;;;;;;;;4.00;4.00;;;;;24.66;45.52;101916.66;5076904;27;51135;-60
2021/08/23 00:07:06;;;;;;;;;5.50;3.75;;;;;24.66;45.42;101930.50;5058312;28;51110;-60
2021/08/23 00:09:32;;;;;;;;;4.50;4.25;;;;;24.64;45.17;101919.66;5058659;28;51072;-60
2021/08/23 00:11:59;;;;;;;;;5.00;4.75;;;;;24.64;45.66;101916.03;5076086;28;51288;-59
2021/08/23 00:14:24;;;;;;;;;4.00;4.00;;;;;24.62;45.70;101919.03;5078170;27;52313;-61
2021/08/23 00:16:50;;;;;;;;;4.00;4.00;;;;;24.62;45.61;101921.81;5062275;27;51037;-60
2021/08/23 00:19:15;;;;;;;;;4.00;4.00;;;;;24.62;45.54;101919.03;5072837;28;51270;-60
2021/08/23 00:21:44;;;;;;;;;5.25;3.75;;;;;24.62;45.78;101916.28;5079308;27;50941;-59
2021/08/23 00:24:21;;;;;;;;;6.75;3.25;;;;;24.60;45.67;101912.88;5078432;27;51121;-60
2021/08/23 00:26:58;;;;;;;;;7.00;5.00;;;;;24.61;45.60;101914.56;5067715;28;51150;-59
2021/08/23 00:29:24;;;;;;;;;6.75;5.00;;;;;24.61;45.67;101924.81;5078749;27;51133;-60
2021/08/23 00:31:50;;;;;;;;;5.25;3.00;;;;;24.60;45.74;101923.97;5078433;27;51605;-60
2021/08/23 00:34:16;;;;;;;;;4.25;4.25;;;;;24.59;45.68;101921.38;5078131;27;52129;-60
2021/08/23 00:36:41;;;;;;;;;5.75;4.25;;;;;24.59;45.82;101916.69;5078253;27;51163;-60
2021/08/23 00:39:09;;;;;;;;;5.50;4.25;;;;;24.59;45.68;101918.63;5069106;27;51227;-60
2021/08/23 00:41:40;;;;;;;;;4.25;4.25;;;;;24.57;45.89;101913.31;5073321;28;51310;-60
2021/08/23 00:44:06;;;;;;;;;4.25;3.75;;;;;24.57;45.73;101921.63;5077758;27;52899;-60
2021/08/23 00:46:33;;;;;;;;;4.50;3.50;;;;;24.56;45.81;101916.31;5065080;27;51421;-61
2021/08/23 00:49:00;;;;;;;;;4.50;3.00;;;;;24.56;45.69;101919.06;5069522;28;52272;-60
2021/08/23 00:51:25;;;;;;;;;3.25;3.25;;;;;24.55;45.92;101912.69;5075772;27;50937;-60
2021/08/23 00:53:51;;;;;;;;;5.75;4.25;;;;;24.55;45.91;101912.69;5057591;28;51156;-60
2021/08/23 00:56:20;;;;;;;;;5.50;4.00;;;;;24.55;45.61;101920.16;5057734;28;51511;-59
2021/08/23 00:58:46;;;;;;;;;4.00;4.00;;;;;24.54;46.01;101905.47;5058037;28;51172;-59
2021/08/23 01:01:21;;;;;;;;;4.25;4.00;;;;;24.54;45.80;101911.00;5065521;28;51342;-59
2021/08/23 01:03:56;;;;;;;;;3.75;3.00;;;;;24.52;45.75;101904.84;5060211;27;51138;-60
2021/08/23 01:06:24;;;;;;;;;5.00;5.00;;;;;24.53;46.00;101900.16;5070826;27;51389;-61
2021/08/23 01:08:53;;;;;;;;;6.00;4.75;;;;;24.53;45.58;101916.75;5077695;27;51022;-61
2021/08/23 01:11:20;;;;;;;;;3.00;2.75;;;;;24.52;45.69;101904.84;5075737;28;51426;-60
2021/08/23 01:13:48;;;;;;;;;4.25;3.00;;;;;24.51;45.96;101908.69;5077606;27;50953;-60
2021/08/23 01:16:14;;;;;;;;;6.75;4.75;;;;;24.52;46.00;101901.22;5075993;28;51299;-60
2021/08/23 01:18:42;;;;;;;;;6.50;4.00;;;;;24.52;46.30;101898.44;5064454;27;51136;-60
2021/08/23 01:21:11;;;;;;;;;3.75;3.75;;;;;24.53;45.91;101906.53;5071928;28;51312;-61
2021/08/23 01:23:42;;;;;;;;;3.50;3.50;;;;;24.52;46.33;101904.00;5077592;27;51082;-60
2021/08/23 01:26:08;;;;;;;;;4.00;4.00;;;;;24.51;45.85;101908.69;5074626;27;51264;-59
2021/08/23 01:28:59;;;;;;;;;3.00;3.00;;;;;24.52;46.07;101909.53;5057746;28;51084;-60
2021/08/23 01:31:43;;;;;;;;;3.50;2.00;;;;;24.52;46.24;101913.16;5057262;28;51134;-59
2021/08/23 01:34:10;;;;;;;;;4.25;3.25;;;;;24.52;45.92;101904.84;5056671;28;51153;-59
2021/08/23 01:36:36;;;;;;;;;2.25;2.25;;;;;24.51;46.31;101911.44;5057135;28;50929;-60
2021/08/23 01:39:02;;;;;;;;;4.00;3.50;;;;;24.50;46.19;101909.75;5057405;28;51258;-60
2021/08/23 01:41:27;;;;;;;;;5.00;3.00;;;;;24.50;46.26;101915.31;5057092;28;51335;-60
2021/08/23 01:43:53;;;;;;;;;3.75;2.75;;;;;24.49;46.36;101910.84;5060074;28;60971;-60
2021/08/23 01:46:18;;;;;;;;;3.75;3.75;;;;;24.50;46.23;101915.31;5064664;28;51100;-60
2021/08/23 01:48:44;;;;;;;;;5.50;4.50;;;;;24.49;46.39;101910.84;5056213;28;51055;-59
2021/08/23 01:51:09;;;;;;;;;4.75;4.00;;;;;24.49;46.33;101916.38;5071300;28;51122;-60
2021/08/23 01:53:34;;;;;;;;;5.00;3.50;;;;;24.49;46.23;101921.91;5075939;27;51101;-59
2021/08/23 01:56:01;;;;;;;;;4.00;4.00;;;;;24.47;46.19;101919.34;5066855;28;51126;-59
2021/08/23 01:58:26;;;;;;;;;2.75;2.75;;;;;24.47;46.72;101919.34;5056749;28;51042;-59
2021/08/23 02:00:52;;;;;;;;;4.75;3.00;;;;;24.46;46.42;101914.03;5056984;28;50942;-60
2021/08/23 02:03:17;;;;;;;;;3.00;3.00;;;;;24.46;46.33;101925.09;5066711;28;51095;-60
2021/08/23 02:05:42;;;;;;;;;3.00;3.00;;;;;24.45;46.46;101920.66;5071304;28;51127;-61
2021/08/23 02:08:08;;;;;;;;;3.25;2.25;;;;;24.43;46.41;101915.34;5062583;28;51160;-59
2021/08/23 02:10:34;;;;;;;;;4.75;3.00;;;;;24.44;46.52;101918.94;5056622;28;50941;-60
2021/08/23 02:12:59;;;;;;;;;5.50;5.00;;;;;24.43;46.28;101908.94;5056339;28;51001;-59
2021/08/23 02:15:24;;;;;;;;;4.00;3.25;;;;;24.43;46.39;101915.34;5056779;28;51097;-60
2021/08/23 02:17:50;;;;;;;;;2.75;2.75;;;;;24.42;46.28;101918.34;5066611;28;51099;-59
2021/08/23 02:20:15;;;;;;;;;3.00;3.00;;;;;24.42;46.45;101919.19;5076405;27;51195;-60
2021/08/23 02:22:41;;;;;;;;;5.00;4.00;;;;;24.42;46.60;101918.34;5074337;28;51907;-59
2021/08/23 02:25:08;;;;;;;;;7.00;3.50;;;;;24.41;46.36;101924.94;5076425;27;51018;-59
2021/08/23 02:27:33;;;;;;;;;3.25;3.00;;;;;24.41;46.62;101933.25;5061945;27;51240;-60
2021/08/23 02:29:58;;;;;;;;;4.00;3.75;;;;;24.41;46.45;101930.47;5056623;28;51150;-59
2021/08/23 02:32:24;;;;;;;;;5.75;4.00;;;;;24.41;46.66;101922.16;5056032;28;51136;-59
2021/08/23 02:34:49;;;;;;;;;4.25;4.00;;;;;24.39;46.33;101916.00;5055950;28;50998;-59
2021/08/23 02:37:14;;;;;;;;;4.50;3.00;;;;;24.40;46.19;101914.94;5056472;28;51198;-59
2021/08/23 02:39:40;;;;;;;;;3.25;3.25;;;;;24.38;46.53;101911.53;5056288;28;51210;-59
2021/08/23 02:42:05;;;;;;;;;4.00;2.75;;;;;24.38;46.75;101923.44;5056067;28;51599;-59
2021/08/23 02:44:31;;;;;;;;;3.25;3.25;;;;;24.38;46.60;101917.06;5056227;28;51036;-60
2021/08/23 02:46:56;;;;;;;;;4.50;3.75;;;;;24.37;46.39;101921.75;5058704;28;50978;-60
2021/08/23 02:49:22;;;;;;;;;2.25;2.25;;;;;24.37;46.65;101920.91;5063139;27;51041;-59
2021/08/23 02:51:48;;;;;;;;;2.00;2.00;;;;;24.37;46.71;101915.38;5074170;28;50983;-60
2021/08/23 02:54:13;;;;;;;;;6.00;2.50;;;;;24.37;46.50;101915.38;5076446;27;51076;-59
2021/08/23 02:56:39;;;;;;;;;3.00;3.00;;;;;24.35;46.56;101909.22;5060464;28;51307;-59
2021/08/23 02:59:05;;;;;;;;;4.00;2.75;;;;;24.34;47.12;101908.34;5062685;28;51298;-60
2021/08/23 03:01:31;;;;;;;;;1.50;1.50;;;;;24.35;46.52;101912.81;5075222;28;51112;-60
2021/08/23 03:03:56;;;;;;;;;3.25;3.25;;;;;24.34;46.70;101913.91;5068833;27;51162;-60
2021/08/23 03:06:21;;;;;;;;;4.00;3.00;;;;;24.34;46.83;101910.28;5063056;27;51981;-59
2021/08/23 03:08:47;;;;;;;;;4.75;4.25;;;;;24.34;46.86;101910.28;5055991;28;51152;-59
2021/08/23 03:11:14;;;;;;;;;4.00;2.25;;;;;24.34;47.06;101904.75;5055308;28;51179;-60
2021/08/23 03:13:41;;;;;;;;;4.00;4.00;;;;;24.34;47.01;101910.28;5055982;28;51123;-59
2021/08/23 03:16:07;;;;;;;;;3.50;3.00;;;;;24.33;46.78;101912.19;5062663;28;51083;-60
2021/08/23 03:18:33;;;;;;;;;5.00;3.00;;;;;24.32;46.66;101899.44;5063839;27;51353;-59
2021/08/23 03:20:58;;;;;;;;;5.50;4.00;;;;;24.32;46.81;101913.28;5059951;27;51928;-60
2021/08/23 03:23:24;;;;;;;;;3.50;3.50;;;;;24.32;46.60;101909.66;5055430;28;50958;-59
2021/08/23 03:25:50;;;;;;;;;5.00;3.00;;;;;24.32;47.19;101913.28;5056192;28;51009;-60
2021/08/23 03:28:16;;;;;;;;;6.00;4.75;;;;;24.31;46.89;101910.72;5076203;27;51339;-59
2021/08/23 03:30:41;;;;;;;;;3.25;2.75;;;;;24.31;47.03;101913.50;5075855;28;51165;-60
2021/08/23 03:33:06;;;;;;;;;6.25;3.00;;;;;24.30;46.92;101909.00;5075103;27;51250;-59
2021/08/23 03:35:32;;;;;;;;;3.75;3.75;;;;;24.30;46.75;101911.78;5069384;28;51104;-60
2021/08/23 03:37:59;;;;;;;;;6.25;5.00;;;;;24.30;47.00;101914.53;5055762;28;51061;-57
2021/08/23 03:40:25;;;;;;;;;4.00;4.00;;;;;24.30;46.94;101911.78;5060087;28;51907;-58
2021/08/23 03:42:50;;;;;;;;;4.00;4.00;;;;;24.29;46.99;101916.47;5075877;27;51131;-60
2021/08/23 03:45:15;;;;;;;;;3.00;3.00;;;;;24.29;46.94;101913.69;5065113;27;51397;-58
2021/08/23 03:47:41;;;;;;;;;5.50;4.00;;;;;24.29;47.29;101908.16;5064058;28;51196;-58
2021/08/23 03:50:06;;;;;;;;;3.50;3.50;;;;;24.28;47.47;101909.22;5071588;28;51080;-59
2021/08/23 03:52:32;;;;;;;;;5.75;4.25;;;;;24.28;46.89;101912.00;5055169;28;51277;-59
2021/08/23 03:54:57;;;;;;;;;5.25;3.50;;;;;24.27;47.21;101913.03;5055466;28;51058;-59
2021/08/23 03:57:22;;;;;;;;;5.00;4.00;;;;;24.27;47.38;101904.75;5055542;28;50988;-58
2021/08/23 03:59:48;;;;;;;;;3.50;3.00;;;;;24.27;47.13;101912.19;5054678;28;59183;-58
2021/08/23 04:02:14;;;;;;;;;3.75;3.75;;;;;24.27;46.98;101906.66;5074611;28;51106;-58
2021/08/23 04:04:39;;;;;;;;;3.50;3.50;;;;;24.26;47.33;101908.59;5074983;28;50976;-58
2021/08/23 04:07:04;;;;;;;;;3.75;3.50;;;;;24.26;47.29;101907.72;5073873;28;51432;-59
2021/08/23 04:09:30;;;;;;;;;3.50;3.50;;;;;24.26;47.13;101913.28;5075316;28;51281;-58
2021/08/23 04:11:55;;;;;;;;;4.00;4.00;;;;;24.25;47.30;101915.19;5073536;28;51017;-59
2021/08/23 04:14:20;;;;;;;;;4.00;4.00;;;;;24.25;47.35;101908.81;5067696;27;51121;-59
2021/08/23 04:16:45;;;;;;;;;6.25;3.00;;;;;24.25;47.16;101917.13;5054592;28;50944;-59
2021/08/23 04:19:11;;;;;;;;;5.00;3.75;;;;;24.24;47.27;101909.88;5078368;27;51213;-58
2021/08/23 04:21:36;;;;;;;;;6.00;4.00;;;;;24.24;47.49;101907.13;5065671;27;51089;-58
2021/08/23 04:24:01;;;;;;;;;6.00;4.75;;;;;24.24;47.42;101907.13;5059792;28;51064;-58
2021/08/23 04:26:27;;;;;;;;;6.75;3.25;;;;;24.24;47.12;101919.03;5071280;28;51079;-59
2021/08/23 04:28:52;;;;;;;;;5.00;3.00;;;;;24.23;47.48;101908.19;5064843;28;51990;-58
2021/08/23 04:31:18;;;;;;;;;7.00;4.25;;;;;24.22;47.59;101912.88;5078584;27;51470;-58
2021/08/23 04:33:45;;;;;;;;;6.75;4.50;;;;;24.22;47.96;101915.66;5078455;27;51238;-58
2021/08/23 04:36:11;;;;;;;;;3.00;3.00;;;;;24.22;47.58;101915.66;5078477;27;51059;-58
2021/08/23 04:38:37;;;;;;;;;5.50;4.00;;;;;24.22;47.40;101914.81;5078156;27;51858;-58
2021/08/23 04:41:02;;;;;;;;;4.50;3.00;;;;;24.21;47.65;101918.63;5076620;28;51138;-59
2021/08/23 04:43:27;;;;;;;;;4.00;4.00;;;;;24.21;47.94;101913.09;5078269;27;51273;-60
2021/08/23 04:45:53;;;;;;;;;4.00;4.00;;;;;24.19;47.87;101919.72;5078017;28;51144;-58
2021/08/23 04:48:18;;;;;;;;;4.00;4.00;;;;;24.18;47.91;101920.78;5064056;28;51580;-58
2021/08/23 04:50:43;;;;;;;;;3.25;3.25;;;;;24.19;47.88;101928.03;5062397;28;51081;-59
2021/08/23 04:53:08;;;;;;;;;5.00;4.00;;;;;24.18;47.81;101925.47;5077461;27;51025;-59
2021/08/23 04:55:34;;;;;;;;;4.50;3.50;;;;;24.18;48.03;101934.63;5078742;27;50889;-59
2021/08/23 04:57:59;;;;;;;;;6.00;4.00;;;;;24.17;47.47;101927.38;5078049;28;51042;-58
2021/08/23 05:00:25;;;;;;;;;6.00;3.50;;;;;24.16;47.76;101933.97;5060091;27;51077;-59
2021/08/23 05:02:50;;;;;;;;;4.00;4.00;;;;;24.17;47.68;101937.59;5061137;28;51312;-58
2021/08/23 05:05:15;;;;;;;;;6.75;5.00;;;;;24.16;48.21;101939.50;5078075;27;51257;-59
2021/08/23 05:07:41;;;;;;;;;4.00;4.00;;;;;24.16;48.27;101941.44;5075501;28;50993;-58
2021/08/23 05:10:07;;;;;;;;;8.00;5.00;;;;;24.16;48.21;101938.66;5077839;27;51274;-58
2021/08/23 05:12:32;;;;;;;;;5.50;4.50;;;;;24.15;47.86;101939.75;5076675;27;50962;-58
2021/08/23 05:14:57;;;;;;;;;4.00;4.00;;;;;24.15;48.21;101948.03;5076755;28;51128;-58
2021/08/23 05:17:25;;;;;;;;;5.25;4.00;;;;;24.15;48.00;101940.59;5073771;28;55487;-59
2021/08/23 05:19:51;;;;;;;;;4.75;4.75;;;;;24.15;48.01;101948.91;5076364;27;51400;-57
2021/08/23 05:22:17;;;;;;;;;6.00;6.00;;;;;24.15;47.84;101946.13;5074309;28;51190;-57
2021/08/23 05:24:43;;;;;;;;;7.75;7.00;;;;;24.14;47.96;101949.97;5070035;27;50946;-58
2021/08/23 05:27:08;;;;;;;;;7.00;6.25;;;;;24.15;48.21;101953.59;5068007;28;51662;-58
2021/08/23 05:29:33;;;;;;;;;7.75;7.00;;;;;24.14;48.13;101949.97;5077177;28;52140;-58
2021/08/23 05:31:58;;;;;;;;;6.50;4.25;;;;;24.14;47.88;101949.13;5074711;27;51073;-58
2021/08/23 05:34:24;;;;;;;;;7.50;6.00;;;;;24.12;48.39;101952.09;5063806;27;51082;-58
2021/08/23 05:36:49;;;;;;;;;5.00;5.00;;;;;24.12;48.39;101957.66;5075647;28;52217;-58
2021/08/23 05:39:14;;;;;;;;;6.75;5.75;;;;;24.11;48.76;101960.63;5076921;27;51236;-58
2021/08/23 05:41:40;;;;;;;;;5.50;5.00;;;;;24.10;48.23;101962.56;5068797;28;51081;-58
2021/08/23 05:44:05;;;;;;;;;9.00;6.00;;;;;24.10;48.26;101956.19;5074010;28;51074;-58
2021/08/23 05:46:30;;;;;;;;;8.00;7.50;;;;;24.08;48.59;101967.47;5072023;27;52468;-60
2021/08/23 05:48:56;;;;;;;;;7.50;7.00;;;;;24.08;48.57;101969.41;5059000;28;51193;-59
2021/08/23 05:51:21;;;;;;;;;7.50;7.00;;;;;24.06;48.97;101971.50;5068701;28;51189;-59
2021/08/23 05:53:46;;;;;;;;;9.75;7.75;;;;;24.05;48.39;101967.03;5074889;27;51154;-59
2021/08/23 05:56:12;;;;;;;;;7.50;6.50;;;;;24.04;48.62;101966.19;5076532;28;51063;-58
2021/08/23 05:58:37;;;;;;;;;10.00;6.75;;;;;24.03;48.78;101974.72;5071742;27;51176;-60
2021/08/23 06:01:05;;;;;;;;;11.75;9.00;;;;;24.02;48.47;101968.34;5073047;28;51717;-60
2021/08/23 06:03:32;;;;;;;;;8.00;8.00;;;;;24.02;48.61;101968.34;5075313;27;51691;-59
2021/08/23 06:05:57;;;;;;;;;6.00;6.00;;;;;24.04;48.50;101973.66;5071235;28;51126;-59
2021/08/23 06:08:23;;;;;;;;;7.75;7.00;;;;;24.04;48.69;101980.03;5058137;28;51061;-59
2021/08/23 06:10:48;;;;;;;;;7.50;6.25;;;;;24.06;48.98;101979.81;5070624;28;51049;-58
2021/08/23 06:13:14;;;;;;;;;7.75;7.25;;;;;24.09;50.04;101983.00;5064241;27;51210;-58
2021/08/23 06:15:39;;;;;;;;;8.50;6.00;;;;;24.12;49.26;101984.47;5065254;28;51558;-58
2021/08/23 06:18:04;;;;;;;;;6.75;5.00;;;;;24.13;49.43;101983.41;5060274;28;52336;-58
2021/08/23 06:20:30;;;;;;;;;5.50;5.25;;;;;24.15;49.28;101986.81;5066942;28;51278;-60
2021/08/23 06:22:55;;;;;;;;;7.75;6.25;;;;;24.16;49.30;101992.13;5072232;27;51045;-58
2021/08/23 06:25:20;;;;;;;;;7.00;7.00;;;;;24.17;49.64;101996.56;5068833;28;54282;-59
2021/08/23 06:27:46;;;;;;;;;8.25;8.00;;;;;24.19;49.58;101999.16;5070333;27;51246;-59
2021/08/23 06:30:12;;;;;;;;;14.50;11.00;;;;;24.20;49.53;101995.31;5058889;28;51159;-59
2021/08/23 06:32:37;;;;;;;;;10.00;10.00;;;;;24.21;49.57;101996.16;5073037;27;51160;-60
2021/08/23 06:35:03;;;;;;;;;9.25;9.25;;;;;24.20;49.90;101998.09;5071058;27;51184;-59
2021/08/23 06:37:31;;;;;;;;;9.00;6.75;;;;;24.22;49.30;102000.63;5071991;27;51332;-59
2021/08/23 06:39:56;;;;;;;;;12.00;9.25;;;;;24.22;49.90;102001.47;5062787;28;51565;-59
2021/08/23 06:42:22;;;;;;;;;8.50;6.75;;;;;24.24;49.51;102002.09;5065489;28;52476;-59
2021/08/23 06:44:47;;;;;;;;;10.50;10.00;;;;;24.24;49.76;101995.72;5071850;28;52657;-58
2021/08/23 06:47:13;;;;;;;;;15.25;12.00;;;;;24.24;49.75;101992.94;5066137;27;51046;-58
2021/08/23 06:49:39;;;;;;;;;10.25;10.25;;;;;24.23;49.23;101996.78;5065211;27;51216;-59
2021/08/23 06:52:04;;;;;;;;;12.25;11.75;;;;;24.25;49.32;102000.19;5071773;27;51161;-59
2021/08/23 06:54:30;;;;;;;;;11.25;8.25;;;;;24.25;49.22;101997.41;5069847;27;51594;-58
2021/08/23 06:56:55;;;;;;;;;10.00;8.50;;;;;24.26;48.90;101988.03;5066434;28;50942;-59
2021/08/23 06:59:20;;;;;;;;;7.00;6.00;;;;;24.26;48.97;101997.19;5073579;27;51218;-58
2021/08/23 07:01:45;;;;;;;;;10.25;8.00;;;;;24.25;48.70;102003.78;5062019;27;51135;-59
2021/08/23 07:04:11;;;;;;;;;9.25;8.25;;;;;24.25;48.40;102002.94;5070258;28;51348;-59
2021/08/23 07:06:36;;;;;;;;;6.50;6.50;;;;;24.26;48.88;102004.63;5071414;28;51206;-59
2021/08/23 07:09:02;;;;;;;;;8.50;7.00;;;;;24.25;48.36;101987.19;5069793;28;51060;-60
2021/08/23 07:11:27;;;;;;;;;10.50;9.00;;;;;24.25;48.24;101991.88;5056693;27;51407;-59
2021/08/23 07:13:53;;;;;;;;;5.75;5.75;;;;;24.25;48.47;101994.63;5063028;28;51044;-59
2021/08/23 07:16:18;;;;;;;;;7.75;7.00;;;;;24.25;48.39;101998.25;5054670;28;51098;-58
2021/08/23 07:18:44;;;;;;;;;9.25;8.50;;;;;24.24;48.25;102004.03;5062591;28;51294;-60
2021/08/23 07:21:09;;;;;;;;;10.00;7.00;;;;;24.24;48.41;102007.63;5062473;28;51160;-59
2021/08/23 07:23:34;;;;;;;;;10.25;7.75;;;;;24.24;48.16;102004.03;5061754;28;52108;-59
2021/08/23 07:26:00;;;;;;;;;8.75;8.75;;;;;24.24;48.23;102001.25;5056243;28;51147;-59
2021/08/23 07:28:26;;;;;;;;;8.50;8.50;;;;;24.24;47.78;102004.03;5073749;27;51084;-59
2021/08/23 07:30:52;;;;;;;;;7.25;6.75;;;;;24.23;47.93;102000.41;5066027;28;51138;-60
2021/08/23 07:33:17;;;;;;;;;11.25;8.00;;;;;24.23;48.24;102017.00;5065963;27;51084;-59
2021/08/23 07:35:43;;;;;;;;;9.00;6.50;;;;;24.22;48.32;102001.47;5064380;28;51144;-58
2021/08/23 07:38:08;;;;;;;;;8.75;8.00;;;;;24.22;48.10;101998.72;5056830;28;51077;-59
2021/08/23 07:40:33;;;;;;;;;7.00;7.00;;;;;24.22;47.81;101997.84;5055000;28;51397;-58
2021/08/23 07:42:59;;;;;;;;;7.75;7.00;;;;;24.23;47.93;102008.72;5054376;28;51792;-59
2021/08/23 07:45:24;;;;;;;;;7.25;7.25;;;;;24.23;47.87;101999.56;5059444;28;50986;-59
2021/08/23 07:47:50;;;;;;;;;7.00;6.25;;;;;24.23;48.19;101994.88;5067554;27;51064;-59
2021/08/23 07:50:15;;;;;;;;;8.00;7.25;;;;;24.22;47.80;102004.25;5059242;28;50891;-58
2021/08/23 07:52:41;;;;;;;;;9.75;7.25;;;;;24.23;47.96;101994.03;5059586;28;51027;-58
2021/08/23 07:55:08;;;;;;;;;8.00;7.75;;;;;24.23;47.82;102005.09;5072879;28;51197;-59
2021/08/23 07:57:33;;;;;;;;;8.50;6.75;;;;;24.22;47.66;102001.47;5066402;28;51068;-58
2021/08/23 07:59:59;;;;;;;;;6.75;6.75;;;;;24.23;47.97;102005.09;5065205;28;50977;-58
2021/08/23 08:02:24;;;;;;;;;7.50;7.00;;;;;24.23;47.79;101999.56;5066914;28;51166;-58
2021/08/23 08:04:50;;;;;;;;;8.00;7.00;;;;;24.23;47.85;101999.56;5071571;28;51136;-58
2021/08/23 08:07:16;;;;;;;;;6.75;6.50;;;;;24.23;48.09;101996.78;5064025;27;51092;-58
2021/08/23 08:09:42;;;;;;;;;6.75;5.75;;;;;24.23;47.88;101999.56;5070481;28;51176;-58
2021/08/23 08:12:07;;;;;;;;;5.25;5.25;;;;;24.23;48.00;102005.09;5062875;27;52864;-58
2021/08/23 08:14:33;;;;;;;;;8.50;7.00;;;;;24.24;47.99;102004.03;5059790;28;51073;-59
2021/08/23 08:16:58;;;;;;;;;8.25;6.75;;;;;24.23;47.91;102005.09;5063894;28;51314;-59
2021/08/23 08:19:24;;;;;;;;;6.75;5.75;;;;;24.23;47.86;102010.63;5065841;28;51229;-58
2021/08/23 08:21:50;;;;;;;;;8.50;7.50;;;;;24.23;47.55;102016.16;5065584;27;51844;-58
2021/08/23 08:24:15;;;;;;;;;8.25;8.00;;;;;24.23;48.03;102011.47;5075980;27;50986;-59
2021/08/23 08:26:40;;;;;;;;;10.75;9.00;;;;;24.23;47.95;102011.47;5076336;27;51234;-58
2021/08/23 08:29:06;;;;;;;;;8.50;8.50;;;;;24.22;47.82;102009.78;5059488;27;51338;-59
2021/08/23 08:31:31;;;;;;;;;7.75;7.75;;;;;24.22;47.65;102006.16;5058127;28;51156;-58
2021/08/23 08:33:56;;;;;;;;;7.50;7.50;;;;;24.22;47.41;102006.16;5067521;28;51150;-58
2021/08/23 08:36:22;;;;;;;;;9.00;8.00;;;;;24.21;47.46;102005.31;5072825;28;51136;-59
2021/08/23 08:38:48;;;;;;;;;11.00;8.25;;;;;24.22;47.50;102004.25;5076065;27;51340;-59
2021/08/23 08:41:14;;;;;;;;;9.50;6.75;;;;;24.24;47.61;102006.78;5075855;28;52794;-59
2021/08/23 08:43:39;;;;;;;;;12.00;8.00;;;;;24.24;47.58;101992.94;5076656;27;51150;-62
2021/08/23 08:46:05;;;;;;;;;10.50;7.75;;;;;24.24;47.57;101999.34;5061176;27;51422;-59
2021/08/23 08:48:31;;;;;;;;;8.25;7.25;;;;;24.24;47.81;101996.56;5060871;28;51137;-58
2021/08/23 08:50:57;;;;;;;;;9.75;6.75;;;;;24.25;47.71;101989.09;5059609;27;51905;-59
2021/08/23 08:53:22;;;;;;;;;10.75;9.00;;;;;24.25;47.32;101987.19;5057337;28;51071;-59
2021/08/23 08:55:48;;;;;;;;;9.00;8.75;;;;;24.26;47.59;101997.19;5067703;28;51153;-58
2021/08/23 08:58:13;;;;;;;;;8.25;8.00;;;;;24.27;47.78;101998.88;5073055;27;51393;-59
2021/08/23 09:00:40;;;;;;;;;7.75;7.75;;;;;24.27;47.71;101998.88;5073318;28;52021;-58
2021/08/23 09:03:07;;;;;;;;;7.25;6.75;;;;;24.27;47.69;102001.66;5060533;28;51085;-60
2021/08/23 09:05:48;;;;;;;;;8.50;8.00;;;;;24.29;47.83;102004.22;5076010;27;51127;-61
2021/08/23 09:08:13;;;;;;;;;7.50;7.50;;;;;24.29;47.62;102012.53;5072159;27;51180;-60
2021/08/23 09:10:39;;;;;;;;;7.25;7.25;;;;;24.30;47.51;102005.91;5056293;28;52075;-60
2021/08/23 09:13:12;;;;;;;;;5.25;5.25;;;;;24.30;47.79;102014.22;5056277;28;51129;-62
2021/08/23 09:15:51;;;;;;;;;9.50;7.50;;;;;24.30;47.49;102014.22;5065469;28;51094;-60
2021/08/23 09:18:24;;;;;;;;;7.75;7.75;;;;;24.29;47.69;102013.38;5069772;28;51249;-60
2021/08/23 09:21:01;;;;;;;;;10.50;9.00;;;;;24.30;47.22;102017.00;5075196;27;51978;-60
2021/08/23 09:23:43;;;;;;;;;6.00;6.00;;;;;24.30;47.82;102008.69;5061794;27;51068;-61
2021/08/23 09:26:13;;;;;;;;;9.75;7.75;;;;;24.30;47.51;102015.06;5057812;28;51330;-59
2021/08/23 09:28:41;;;;;;;;;9.00;7.25;;;;;24.29;47.55;102015.31;5055733;27;51216;-59
2021/08/23 09:31:10;;;;;;;;;8.75;7.00;;;;;24.29;47.51;102012.53;5057322;28;51999;-60
2021/08/23 09:33:44;;;;;;;;;7.50;7.25;;;;;24.28;47.69;102006.16;5058339;27;50996;-58
2021/08/23 09:36:10;;;;;;;;;11.25;6.75;;;;;24.28;47.80;102008.03;5075593;27;51728;-58
2021/08/23 09:38:36;;;;;;;;;9.50;8.25;;;;;24.29;47.36;102009.75;5073591;27;51453;-58
2021/08/23 09:41:04;;;;;;;;;8.50;7.25;;;;;24.29;47.59;102007.84;5060188;27;51851;-58
2021/08/23 09:43:31;;;;;;;;;10.50;10.25;;;;;24.30;47.87;102001.22;5055663;28;51049;-58
2021/08/23 09:46:02;;;;;;;;;5.75;5.75;;;;;24.30;47.66;102012.31;5055949;28;51161;-58
2021/08/23 09:48:28;;;;;;;;;8.00;8.00;;;;;24.31;47.54;102013.19;5055138;28;51430;-58
2021/08/23 09:50:53;;;;;;;;;7.00;5.75;;;;;24.30;47.42;102012.31;5055761;28;51160;-58
2021/08/23 09:53:20;;;;;;;;;7.50;5.75;;;;;24.30;47.36;102017.84;5055702;28;51124;-58
2021/08/23 09:55:51;;;;;;;;;8.25;5.00;;;;;24.31;47.57;102016.81;5055775;28;51231;-58
2021/08/23 09:58:17;;;;;;;;;6.50;6.50;;;;;24.33;47.58;102013.81;5056159;28;51361;-58
2021/08/23 10:00:44;;;;;;;;;6.50;5.50;;;;;24.34;47.39;102010.81;5055501;28;51666;-58
2021/08/23 10:03:14;;;;;;;;;5.25;5.25;;;;;24.35;47.38;102017.19;5055463;28;51390;-59
2021/08/23 10:05:49;;;;;;;;;7.00;6.25;;;;;24.35;47.51;102015.28;5055359;28;51138;-58
2021/08/23 10:08:17;;;;;;;;;5.00;5.00;;;;;24.35;47.63;102014.44;5055737;28;51051;-60
2021/08/23 10:10:44;;;;;;;;;5.25;5.25;;;;;24.36;47.71;102013.34;5055278;28;52101;-59
2021/08/23 10:13:15;;;;;;;;;8.25;6.00;;;;;24.36;47.34;102011.44;5054975;28;51161;-58
2021/08/23 10:15:41;;;;;;;;;5.00;5.00;;;;;24.36;47.71;102016.97;5055106;28;51034;-59
2021/08/23 10:18:08;;;;;;;;;8.00;6.00;;;;;24.36;47.33;102011.44;5055418;28;51128;-58
2021/08/23 10:20:35;;;;;;;;;5.50;5.50;;;;;24.37;47.37;102006.75;5055507;28;52010;-58
2021/08/23 10:23:01;;;;;;;;;4.25;4.25;;;;;24.38;47.71;102008.44;5055687;28;51023;-58
2021/08/23 10:25:27;;;;;;;;;5.75;5.75;;;;;24.37;47.42;102004.81;5055838;28;51142;-58
2021/08/23 10:28:12;;;;;;;;;8.00;6.00;;;;;24.38;47.08;101997.38;5072650;28;51004;-58
2021/08/23 10:30:38;;;;;;;;;6.25;5.75;;;;;24.38;47.45;102003.75;5075252;28;51704;-58
2021/08/23 10:33:18;;;;;;;;;5.00;5.00;;;;;24.38;47.26;102002.91;5075274;27;51655;-58
2021/08/23 10:35:50;;;;;;;;;6.00;5.00;;;;;24.38;47.44;102006.53;5066035;27;51040;-58
2021/08/23 10:38:22;;;;;;;;;6.25;5.00;;;;;24.38;47.28;102013.97;5055152;28;51119;-57
2021/08/23 10:40:49;;;;;;;;;4.25;4.25;;;;;24.39;47.46;102007.41;5054667;28;50999;-58
2021/08/23 10:43:17;;;;;;;;;6.00;5.00;;;;;24.40;47.54;102009.09;5054775;28;51105;-59
2021/08/23 10:45:44;;;;;;;;;5.25;5.25;;;;;24.40;47.55;102022.94;5054910;28;51058;-59
2021/08/23 10:48:20;;;;;;;;;4.50;4.50;;;;;24.40;47.43;102011.88;5054573;28;51077;-58
2021/08/23 10:51:00;;;;;;;;;5.25;5.25;;;;;24.40;47.15;102018.25;5054305;28;50999;-59
2021/08/23 10:53:38;;;;;;;;;6.00;5.00;;;;;24.40;47.59;102011.88;5054525;28;50951;-59
2021/08/23 10:56:21;;;;;;;;;7.25;5.00;;;;;24.40;47.66;102006.34;5055139;28;51030;-59
2021/08/23 10:58:48;;;;;;;;;7.00;5.50;;;;;24.41;47.60;102013.56;5054797;28;51065;-58
2021/08/23 11:01:22;;;;;;;;;7.75;5.50;;;;;24.41;47.58;102005.25;5054530;28;52087;-59
2021/08/23 11:04:00;;;;;;;;;4.75;3.75;;;;;24.41;47.38;102005.25;5054185;28;51280;-59
2021/08/23 11:06:25;;;;;;;;;3.25;3.25;;;;;24.41;47.67;102013.56;5054911;28;51242;-58
2021/08/23 11:08:51;;;;;;;;;8.00;6.25;;;;;24.40;47.53;102001.63;5055497;28;51179;-59
2021/08/23 11:11:18;;;;;;;;;7.25;6.75;;;;;24.41;47.57;102002.50;5061626;28;51791;-59
2021/08/23 11:13:43;;;;;;;;;5.75;5.75;;;;;24.41;47.68;102002.50;5072724;27;51266;-58
2021/08/23 11:16:09;;;;;;;;;5.50;5.50;;;;;24.39;47.54;101994.41;5057957;27;51112;-59
2021/08/23 11:18:42;;;;;;;;;5.00;3.50;;;;;24.41;47.52;101996.94;5056859;28;50970;-59
2021/08/23 11:21:13;;;;;;;;;5.00;5.00;;;;;24.41;47.72;101994.19;5059824;28;51917;-59
2021/08/23 11:23:39;;;;;;;;;5.50;4.00;;;;;24.41;47.48;101989.50;5056385;27;51001;-60